sensor_id;sensor_type;location;lat;lon;timestamp;P1;durP1;ratioP1;P2;durP2;ratioP2
61527;SDS011;47395;42.032;-8.634;2023-01-15T00:00:14;1230.43;;;999.90;;
61527;SDS011;47395;42.032;-8.634;2023-01-15T00:02:15;1182.82;;;999.90;;
61527;SDS011;47395;42.032;-8.634;2023-01-15T00:04:17;1155.88;;;999.90;;
61527;SDS011;47395;42.032;-8.634;2023-01-15T00:06:19;1197.18;;;999.90;;
61527;SDS011;47395;42.032;-8.634;2023-01-15T00:08:20;1099.93;;;993.67;;
61527;SDS011;47395;42.032;-8.634;2023-01-15T00:10:22;1179.70;;;999.90;;
61527;SDS011;47395;42.032;-8.634;2023-01-15T00:12:22;1150.53;;;999.90;;
61527;SDS011;47395;42.032;-8.634;2023-01-15T00:14:24;1132.30;;;999.90;;
61527;SDS011;47395;42.032;-8.634;2023-01-15T00:16:25;1124.63;;;999.90;;
61527;SDS011;47395;42.032;-8.634;2023-01-15T00:18:27;1138.43;;;999.90;;
61527;SDS011;47395;42.032;-8.634;2023-01-15T00:20:28;1188.18;;;999.90;;
61527;SDS011;47395;42.032;-8.634;2023-01-15T00:22:29;1147.45;;;999.90;;
61527;SDS011;47395;42.032;-8.634;2023-01-15T00:24:30;1130.53;;;999.90;;
61527;SDS011;47395;42.032;-8.634;2023-01-15T00:26:49;1150.57;;;999.90;;
61527;SDS011;47395;42.032;-8.634;2023-01-15T00:29:09;1148.60;;;999.90;;
61527;SDS011;47395;42.032;-8.634;2023-01-15T00:31:12;1154.60;;;999.90;;
61527;SDS011;47395;42.032;-8.634;2023-01-15T00:33:13;1128.70;;;999.90;;
61527;SDS011;47395;42.032;-8.634;2023-01-15T00:35:19;1151.63;;;999.90;;
61527;SDS011;47395;42.032;-8.634;2023-01-15T00:37:21;1152.28;;;999.90;;
61527;SDS011;47395;42.032;-8.634;2023-01-15T00:39:22;1124.50;;;999.90;;
61527;SDS011;47395;42.032;-8.634;2023-01-15T00:41:27;1136.50;;;999.90;;
61527;SDS011;47395;42.032;-8.634;2023-01-15T00:43:28;1142.28;;;999.90;;
61527;SDS011;47395;42.032;-8.634;2023-01-15T00:45:29;1138.40;;;999.90;;
61527;SDS011;47395;42.032;-8.634;2023-01-15T00:47:30;1160.05;;;999.90;;
61527;SDS011;47395;42.032;-8.634;2023-01-15T00:49:31;1165.55;;;999.90;;
61527;SDS011;47395;42.032;-8.634;2023-01-15T00:51:32;1161.82;;;999.90;;
61527;SDS011;47395;42.032;-8.634;2023-01-15T00:53:33;1120.95;;;999.90;;
61527;SDS011;47395;42.032;-8.634;2023-01-15T00:55:34;1144.82;;;999.90;;
61527;SDS011;47395;42.032;-8.634;2023-01-15T00:57:35;1195.47;;;999.90;;
61527;SDS011;47395;42.032;-8.634;2023-01-15T00:59:38;1124.28;;;999.90;;
61527;SDS011;47395;42.032;-8.634;2023-01-15T01:01:40;1119.50;;;999.90;;
61527;SDS011;47395;42.032;-8.634;2023-01-15T01:03:41;1150.97;;;999.90;;
61527;SDS011;47395;42.032;-8.634;2023-01-15T01:05:42;1122.65;;;999.90;;
61527;SDS011;47395;42.032;-8.634;2023-01-15T01:07:43;1129.43;;;999.90;;
61527;SDS011;47395;42.032;-8.634;2023-01-15T01:09:45;1095.47;;;992.08;;
61527;SDS011;47395;42.032;-8.634;2023-01-15T01:11:47;1099.43;;;995.33;;
61527;SDS011;47395;42.032;-8.634;2023-01-15T01:13:49;1145.15;;;999.90;;
61527;SDS011;47395;42.032;-8.634;2023-01-15T01:15:50;1129.53;;;999.90;;
61527;SDS011;47395;42.032;-8.634;2023-01-15T01:17:52;1098.50;;;996.83;;
61527;SDS011;47395;42.032;-8.634;2023-01-15T01:19:53;1125.88;;;999.90;;
61527;SDS011;47395;42.032;-8.634;2023-01-15T01:21:53;1089.00;;;991.97;;
61527;SDS011;47395;42.032;-8.634;2023-01-15T01:23:56;1124.05;;;999.90;;
61527;SDS011;47395;42.032;-8.634;2023-01-15T01:25:58;1091.35;;;989.97;;
61527;SDS011;47395;42.032;-8.634;2023-01-15T01:27:59;1108.13;;;998.55;;
61527;SDS011;47395;42.032;-8.634;2023-01-15T01:30:00;1145.18;;;999.90;;
61527;SDS011;47395;42.032;-8.634;2023-01-15T01:32:01;1118.55;;;999.90;;
61527;SDS011;47395;42.032;-8.634;2023-01-15T01:34:02;1082.38;;;979.95;;
61527;SDS011;47395;42.032;-8.634;2023-01-15T01:36:03;1146.88;;;999.90;;
61527;SDS011;47395;42.032;-8.634;2023-01-15T01:38:05;1114.15;;;998.88;;
61527;SDS011;47395;42.032;-8.634;2023-01-15T01:40:06;1144.05;;;999.90;;
61527;SDS011;47395;42.032;-8.634;2023-01-15T01:42:15;1108.18;;;999.17;;
61527;SDS011;47395;42.032;-8.634;2023-01-15T01:47:09;1087.80;;;989.42;;
61527;SDS011;47395;42.032;-8.634;2023-01-15T01:49:14;1127.45;;;999.90;;
61527;SDS011;47395;42.032;-8.634;2023-01-15T01:51:17;1117.60;;;999.90;;
61527;SDS011;47395;42.032;-8.634;2023-01-15T01:53:22;1122.05;;;999.90;;
61527;SDS011;47395;42.032;-8.634;2023-01-15T01:55:27;1114.85;;;999.90;;
61527;SDS011;47395;42.032;-8.634;2023-01-15T01:57:30;1093.10;;;993.22;;
61527;SDS011;47395;42.032;-8.634;2023-01-15T01:59:32;1129.50;;;999.90;;
61527;SDS011;47395;42.032;-8.634;2023-01-15T02:01:33;1127.57;;;999.90;;
61527;SDS011;47395;42.032;-8.634;2023-01-15T02:03:36;1096.05;;;994.40;;
61527;SDS011;47395;42.032;-8.634;2023-01-15T02:05:39;1126.38;;;999.90;;
61527;SDS011;47395;42.032;-8.634;2023-01-15T02:07:48;1138.63;;;999.90;;
61527;SDS011;47395;42.032;-8.634;2023-01-15T02:09:49;1116.43;;;999.90;;
61527;SDS011;47395;42.032;-8.634;2023-01-15T02:11:50;1113.03;;;999.90;;
61527;SDS011;47395;42.032;-8.634;2023-01-15T02:14:03;1114.25;;;999.50;;
61527;SDS011;47395;42.032;-8.634;2023-01-15T02:16:13;1135.70;;;999.90;;
61527;SDS011;47395;42.032;-8.634;2023-01-15T02:18:28;1106.18;;;998.90;;
61527;SDS011;47395;42.032;-8.634;2023-01-15T02:20:44;1078.32;;;982.08;;
61527;SDS011;47395;42.032;-8.634;2023-01-15T02:25:38;1108.38;;;998.40;;
61527;SDS011;47395;42.032;-8.634;2023-01-15T02:27:54;1111.50;;;999.90;;
61527;SDS011;47395;42.032;-8.634;2023-01-15T02:30:03;1117.30;;;999.90;;
61527;SDS011;47395;42.032;-8.634;2023-01-15T02:33:20;1086.95;;;986.90;;
61527;SDS011;47395;42.032;-8.634;2023-01-15T02:34:54;1086.40;;;988.92;;
61527;SDS011;47395;42.032;-8.634;2023-01-15T02:37:01;1117.53;;;999.90;;
61527;SDS011;47395;42.032;-8.634;2023-01-15T02:39:07;1078.85;;;983.15;;
61527;SDS011;47395;42.032;-8.634;2023-01-15T02:41:11;1099.38;;;996.15;;
61527;SDS011;47395;42.032;-8.634;2023-01-15T02:43:19;1091.38;;;992.40;;
61527;SDS011;47395;42.032;-8.634;2023-01-15T02:45:24;1143.78;;;999.90;;
61527;SDS011;47395;42.032;-8.634;2023-01-15T02:47:34;1092.65;;;993.35;;
61527;SDS011;47395;42.032;-8.634;2023-01-15T02:49:40;1106.75;;;998.78;;
61527;SDS011;47395;42.032;-8.634;2023-01-15T02:52:07;1104.65;;;999.40;;
61527;SDS011;47395;42.032;-8.634;2023-01-15T02:54:19;1103.57;;;998.45;;
61527;SDS011;47395;42.032;-8.634;2023-01-15T02:56:25;1065.82;;;969.67;;
61527;SDS011;47395;42.032;-8.634;2023-01-15T02:58:31;1118.25;;;999.90;;
61527;SDS011;47395;42.032;-8.634;2023-01-15T03:00:39;1114.35;;;999.90;;
61527;SDS011;47395;42.032;-8.634;2023-01-15T03:02:45;1112.25;;;999.90;;
61527;SDS011;47395;42.032;-8.634;2023-01-15T03:04:52;1097.32;;;993.17;;
61527;SDS011;47395;42.032;-8.634;2023-01-15T03:07:05;1078.95;;;979.92;;
61527;SDS011;47395;42.032;-8.634;2023-01-15T03:09:24;1067.57;;;972.03;;
61527;SDS011;47395;42.032;-8.634;2023-01-15T03:11:27;1107.40;;;999.90;;
61527;SDS011;47395;42.032;-8.634;2023-01-15T03:13:55;1077.22;;;980.22;;
61527;SDS011;47395;42.032;-8.634;2023-01-15T03:19:21;1065.78;;;970.63;;
61527;SDS011;47395;42.032;-8.634;2023-01-15T03:21:52;1057.68;;;965.47;;
61527;SDS011;47395;42.032;-8.634;2023-01-15T03:23:57;1080.70;;;987.33;;
61527;SDS011;47395;42.032;-8.634;2023-01-15T03:26:01;1088.63;;;989.20;;
61527;SDS011;47395;42.032;-8.634;2023-01-15T03:28:02;1115.82;;;999.90;;
61527;SDS011;47395;42.032;-8.634;2023-01-15T03:30:08;1094.28;;;993.45;;
61527;SDS011;47395;42.032;-8.634;2023-01-15T03:32:19;1100.45;;;998.90;;
61527;SDS011;47395;42.032;-8.634;2023-01-15T03:34:22;1090.53;;;992.17;;
61527;SDS011;47395;42.032;-8.634;2023-01-15T03:36:26;1111.47;;;999.90;;
61527;SDS011;47395;42.032;-8.634;2023-01-15T03:38:33;1114.45;;;999.90;;
61527;SDS011;47395;42.032;-8.634;2023-01-15T03:40:38;1092.53;;;994.95;;
61527;SDS011;47395;42.032;-8.634;2023-01-15T03:43:03;1099.25;;;999.90;;
61527;SDS011;47395;42.032;-8.634;2023-01-15T03:45:31;1043.38;;;952.00;;
61527;SDS011;47395;42.032;-8.634;2023-01-15T03:50:32;1092.00;;;993.90;;
61527;SDS011;47395;42.032;-8.634;2023-01-15T03:53:32;1031.85;;;944.75;;
61527;SDS011;47395;42.032;-8.634;2023-01-15T03:58:13;1115.07;;;999.90;;
61527;SDS011;47395;42.032;-8.634;2023-01-15T04:00:21;1067.97;;;972.53;;
61527;SDS011;47395;42.032;-8.634;2023-01-15T04:02:31;1047.60;;;957.20;;
61527;SDS011;47395;42.032;-8.634;2023-01-15T04:04:32;1022.92;;;934.92;;
61527;SDS011;47395;42.032;-8.634;2023-01-15T04:06:35;1062.18;;;969.00;;
61527;SDS011;47395;42.032;-8.634;2023-01-15T04:08:39;1081.18;;;985.55;;
61527;SDS011;47395;42.032;-8.634;2023-01-15T04:10:52;1042.30;;;953.88;;
61527;SDS011;47395;42.032;-8.634;2023-01-15T04:12:55;1062.68;;;970.47;;
61527;SDS011;47395;42.032;-8.634;2023-01-15T04:14:56;1083.63;;;985.05;;
61527;SDS011;47395;42.032;-8.634;2023-01-15T04:16:59;1042.97;;;952.92;;
61527;SDS011;47395;42.032;-8.634;2023-01-15T04:19:19;1032.15;;;943.65;;
61527;SDS011;47395;42.032;-8.634;2023-01-15T04:21:33;1039.72;;;951.50;;
61527;SDS011;47395;42.032;-8.634;2023-01-15T04:23:55;999.25;;;914.85;;
61527;SDS011;47395;42.032;-8.634;2023-01-15T04:25:56;1038.18;;;949.63;;
61527;SDS011;47395;42.032;-8.634;2023-01-15T04:28:17;1029.82;;;941.17;;
61527;SDS011;47395;42.032;-8.634;2023-01-15T04:30:38;1090.10;;;993.63;;
61527;SDS011;47395;42.032;-8.634;2023-01-15T04:32:41;1063.78;;;968.95;;
61527;SDS011;47395;42.032;-8.634;2023-01-15T04:34:44;1049.43;;;959.58;;
61527;SDS011;47395;42.032;-8.634;2023-01-15T04:36:45;1061.60;;;968.53;;
61527;SDS011;47395;42.032;-8.634;2023-01-15T04:38:47;1070.93;;;976.70;;
61527;SDS011;47395;42.032;-8.634;2023-01-15T04:40:48;1093.40;;;994.65;;
61527;SDS011;47395;42.032;-8.634;2023-01-15T04:43:10;1012.30;;;924.50;;
61527;SDS011;47395;42.032;-8.634;2023-01-15T04:45:33;1062.65;;;969.67;;
61527;SDS011;47395;42.032;-8.634;2023-01-15T04:47:33;1056.03;;;963.55;;
61527;SDS011;47395;42.032;-8.634;2023-01-15T04:49:36;1059.75;;;967.40;;
61527;SDS011;47395;42.032;-8.634;2023-01-15T04:51:38;1095.85;;;996.35;;
61527;SDS011;47395;42.032;-8.634;2023-01-15T04:53:39;1112.03;;;999.90;;
61527;SDS011;47395;42.032;-8.634;2023-01-15T04:55:40;1109.10;;;999.90;;
61527;SDS011;47395;42.032;-8.634;2023-01-15T04:57:41;1096.78;;;999.20;;
61527;SDS011;47395;42.032;-8.634;2023-01-15T04:59:43;1068.57;;;973.53;;
61527;SDS011;47395;42.032;-8.634;2023-01-15T05:06:12;1043.95;;;953.90;;
61527;SDS011;47395;42.032;-8.634;2023-01-15T05:08:13;1063.45;;;969.33;;
61527;SDS011;47395;42.032;-8.634;2023-01-15T05:10:14;1040.85;;;949.65;;
61527;SDS011;47395;42.032;-8.634;2023-01-15T05:12:15;1090.28;;;992.20;;
61527;SDS011;47395;42.032;-8.634;2023-01-15T05:14:16;1102.85;;;999.90;;
61527;SDS011;47395;42.032;-8.634;2023-01-15T05:16:18;1081.68;;;986.30;;
61527;SDS011;47395;42.032;-8.634;2023-01-15T05:18:29;1024.05;;;935.03;;
61527;SDS011;47395;42.032;-8.634;2023-01-15T05:20:29;1084.88;;;988.67;;
61527;SDS011;47395;42.032;-8.634;2023-01-15T05:22:30;1115.78;;;999.90;;
61527;SDS011;47395;42.032;-8.634;2023-01-15T05:24:31;1071.50;;;977.45;;
61527;SDS011;47395;42.032;-8.634;2023-01-15T05:26:32;1085.25;;;987.92;;
61527;SDS011;47395;42.032;-8.634;2023-01-15T05:28:34;1076.35;;;978.75;;
61527;SDS011;47395;42.032;-8.634;2023-01-15T05:30:35;1051.80;;;958.58;;
61527;SDS011;47395;42.032;-8.634;2023-01-15T05:32:35;1091.82;;;996.25;;
61527;SDS011;47395;42.032;-8.634;2023-01-15T05:34:36;1111.22;;;999.90;;
61527;SDS011;47395;42.032;-8.634;2023-01-15T05:36:37;1078.38;;;982.33;;
61527;SDS011;47395;42.032;-8.634;2023-01-15T05:38:38;1063.95;;;970.33;;
61527;SDS011;47395;42.032;-8.634;2023-01-15T05:40:40;1081.63;;;984.47;;
61527;SDS011;47395;42.032;-8.634;2023-01-15T05:42:41;1092.70;;;994.63;;
61527;SDS011;47395;42.032;-8.634;2023-01-15T05:44:41;1063.53;;;967.47;;
61527;SDS011;47395;42.032;-8.634;2023-01-15T05:46:42;1052.55;;;959.80;;
61527;SDS011;47395;42.032;-8.634;2023-01-15T05:48:44;1077.07;;;984.65;;
61527;SDS011;47395;42.032;-8.634;2023-01-15T05:50:45;1067.20;;;974.50;;
61527;SDS011;47395;42.032;-8.634;2023-01-15T05:52:46;1053.13;;;959.83;;
61527;SDS011;47395;42.032;-8.634;2023-01-15T05:54:47;1066.60;;;973.03;;
61527;SDS011;47395;42.032;-8.634;2023-01-15T05:56:49;1062.05;;;968.40;;
61527;SDS011;47395;42.032;-8.634;2023-01-15T05:58:50;1031.55;;;943.13;;
61527;SDS011;47395;42.032;-8.634;2023-01-15T06:00:51;1023.83;;;934.83;;
61527;SDS011;47395;42.032;-8.634;2023-01-15T06:02:54;1064.53;;;972.80;;
61527;SDS011;47395;42.032;-8.634;2023-01-15T06:04:54;1061.22;;;967.10;;
61527;SDS011;47395;42.032;-8.634;2023-01-15T06:06:55;1011.92;;;925.22;;
61527;SDS011;47395;42.032;-8.634;2023-01-15T06:08:57;1031.90;;;945.00;;
61527;SDS011;47395;42.032;-8.634;2023-01-15T06:10:58;1086.78;;;994.40;;
61527;SDS011;47395;42.032;-8.634;2023-01-15T06:12:59;1047.18;;;957.10;;
61527;SDS011;47395;42.032;-8.634;2023-01-15T06:15:01;1075.00;;;981.88;;
61527;SDS011;47395;42.032;-8.634;2023-01-15T06:17:02;1041.38;;;954.17;;
61527;SDS011;47395;42.032;-8.634;2023-01-15T06:19:04;1033.18;;;947.97;;
61527;SDS011;47395;42.032;-8.634;2023-01-15T06:21:06;1019.67;;;935.63;;
61527;SDS011;47395;42.032;-8.634;2023-01-15T06:23:09;1071.63;;;978.80;;
61527;SDS011;47395;42.032;-8.634;2023-01-15T06:25:10;1051.03;;;961.88;;
61527;SDS011;47395;42.032;-8.634;2023-01-15T06:27:11;1056.95;;;967.35;;
61527;SDS011;47395;42.032;-8.634;2023-01-15T06:29:12;999.35;;;916.55;;
61527;SDS011;47395;42.032;-8.634;2023-01-15T06:31:17;1038.72;;;950.25;;
61527;SDS011;47395;42.032;-8.634;2023-01-15T06:33:20;1035.28;;;949.15;;
61527;SDS011;47395;42.032;-8.634;2023-01-15T06:35:21;1010.25;;;925.85;;
61527;SDS011;47395;42.032;-8.634;2023-01-15T06:37:22;1023.15;;;936.22;;
61527;SDS011;47395;42.032;-8.634;2023-01-15T06:39:23;992.95;;;908.42;;
61527;SDS011;47395;42.032;-8.634;2023-01-15T06:41:24;1055.90;;;966.92;;
61527;SDS011;47395;42.032;-8.634;2023-01-15T06:43:49;986.40;;;905.85;;
61527;SDS011;47395;42.032;-8.634;2023-01-15T06:46:08;999.17;;;916.80;;
61527;SDS011;47395;42.032;-8.634;2023-01-15T06:48:27;1024.97;;;937.95;;
61527;SDS011;47395;42.032;-8.634;2023-01-15T06:50:28;1036.43;;;947.70;;
61527;SDS011;47395;42.032;-8.634;2023-01-15T06:52:29;1008.53;;;921.90;;
61527;SDS011;47395;42.032;-8.634;2023-01-15T06:54:30;1033.70;;;946.50;;
61527;SDS011;47395;42.032;-8.634;2023-01-15T06:56:31;1018.75;;;933.67;;
61527;SDS011;47395;42.032;-8.634;2023-01-15T06:58:32;1041.15;;;950.97;;
61527;SDS011;47395;42.032;-8.634;2023-01-15T07:00:33;1030.03;;;941.53;;
61527;SDS011;47395;42.032;-8.634;2023-01-15T07:02:34;1050.18;;;962.78;;
61527;SDS011;47395;42.032;-8.634;2023-01-15T07:04:35;1036.03;;;949.50;;
61527;SDS011;47395;42.032;-8.634;2023-01-15T07:06:36;997.92;;;915.45;;
61527;SDS011;47395;42.032;-8.634;2023-01-15T07:08:37;1022.28;;;934.88;;
61527;SDS011;47395;42.032;-8.634;2023-01-15T07:10:39;993.92;;;910.75;;
61527;SDS011;47395;42.032;-8.634;2023-01-15T07:12:41;1044.50;;;953.85;;
61527;SDS011;47395;42.032;-8.634;2023-01-15T07:14:42;997.33;;;914.33;;
61527;SDS011;47395;42.032;-8.634;2023-01-15T07:16:43;1000.83;;;916.88;;
61527;SDS011;47395;42.032;-8.634;2023-01-15T07:18:44;1047.03;;;957.58;;
61527;SDS011;47395;42.032;-8.634;2023-01-15T07:20:45;1014.00;;;926.25;;
61527;SDS011;47395;42.032;-8.634;2023-01-15T07:22:49;1052.20;;;962.72;;
61527;SDS011;47395;42.032;-8.634;2023-01-15T07:24:51;1028.75;;;943.38;;
61527;SDS011;47395;42.032;-8.634;2023-01-15T07:26:52;1066.10;;;975.58;;
61527;SDS011;47395;42.032;-8.634;2023-01-15T07:28:53;983.03;;;901.88;;
61527;SDS011;47395;42.032;-8.634;2023-01-15T07:30:56;1039.00;;;949.45;;
61527;SDS011;47395;42.032;-8.634;2023-01-15T07:32:58;1018.00;;;934.08;;
61527;SDS011;47395;42.032;-8.634;2023-01-15T07:34:59;990.15;;;907.95;;
61527;SDS011;47395;42.032;-8.634;2023-01-15T07:36:59;1048.97;;;960.80;;
61527;SDS011;47395;42.032;-8.634;2023-01-15T07:39:04;1050.32;;;961.03;;
61527;SDS011;47395;42.032;-8.634;2023-01-15T07:41:06;1002.03;;;919.10;;
61527;SDS011;47395;42.032;-8.634;2023-01-15T07:43:25;1036.13;;;949.35;;
61527;SDS011;47395;42.032;-8.634;2023-01-15T07:45:44;981.08;;;901.28;;
61527;SDS011;47395;42.032;-8.634;2023-01-15T07:48:06;1038.05;;;949.80;;
61527;SDS011;47395;42.032;-8.634;2023-01-15T07:50:28;1035.25;;;950.33;;
61527;SDS011;47395;42.032;-8.634;2023-01-15T07:52:29;999.85;;;916.92;;
61527;SDS011;47395;42.032;-8.634;2023-01-15T07:54:30;1022.35;;;937.15;;
61527;SDS011;47395;42.032;-8.634;2023-01-15T07:56:31;1043.20;;;953.33;;
61527;SDS011;47395;42.032;-8.634;2023-01-15T07:58:32;1045.78;;;957.22;;
61527;SDS011;47395;42.032;-8.634;2023-01-15T08:00:33;1022.67;;;937.03;;
61527;SDS011;47395;42.032;-8.634;2023-01-15T08:02:34;1057.53;;;967.58;;
61527;SDS011;47395;42.032;-8.634;2023-01-15T08:04:35;1009.53;;;925.92;;
61527;SDS011;47395;42.032;-8.634;2023-01-15T08:06:36;1002.03;;;919.10;;
61527;SDS011;47395;42.032;-8.634;2023-01-15T08:08:37;1061.25;;;974.58;;
61527;SDS011;47395;42.032;-8.634;2023-01-15T08:10:38;1044.97;;;955.35;;
61527;SDS011;47395;42.032;-8.634;2023-01-15T08:12:58;1023.08;;;937.47;;
61527;SDS011;47395;42.032;-8.634;2023-01-15T08:15:18;1005.05;;;923.00;;
61527;SDS011;47395;42.032;-8.634;2023-01-15T08:17:18;1027.88;;;942.20;;
61527;SDS011;47395;42.032;-8.634;2023-01-15T08:19:19;1015.42;;;930.42;;
61527;SDS011;47395;42.032;-8.634;2023-01-15T08:21:20;1011.35;;;925.17;;
61527;SDS011;47395;42.032;-8.634;2023-01-15T08:23:21;1034.97;;;945.97;;
61527;SDS011;47395;42.032;-8.634;2023-01-15T08:25:24;1051.80;;;961.25;;
61527;SDS011;47395;42.032;-8.634;2023-01-15T08:27:25;1053.78;;;964.92;;
61527;SDS011;47395;42.032;-8.634;2023-01-15T08:29:26;1036.25;;;948.55;;
61527;SDS011;47395;42.032;-8.634;2023-01-15T08:31:27;979.90;;;897.22;;
61527;SDS011;47395;42.032;-8.634;2023-01-15T08:33:28;1021.05;;;931.03;;
61527;SDS011;47395;42.032;-8.634;2023-01-15T08:35:29;981.10;;;899.08;;
61527;SDS011;47395;42.032;-8.634;2023-01-15T08:37:30;1041.22;;;949.80;;
61527;SDS011;47395;42.032;-8.634;2023-01-15T08:39:31;1031.88;;;944.95;;
61527;SDS011;47395;42.032;-8.634;2023-01-15T08:41:33;1011.03;;;925.35;;
61527;SDS011;47395;42.032;-8.634;2023-01-15T08:43:33;1039.88;;;951.38;;
61527;SDS011;47395;42.032;-8.634;2023-01-15T08:45:34;999.85;;;917.42;;
61527;SDS011;47395;42.032;-8.634;2023-01-15T08:47:35;1009.30;;;927.28;;
61527;SDS011;47395;42.032;-8.634;2023-01-15T08:49:36;1029.32;;;942.78;;
61527;SDS011;47395;42.032;-8.634;2023-01-15T08:51:37;1022.58;;;935.92;;
61527;SDS011;47395;42.032;-8.634;2023-01-15T08:53:38;1021.13;;;935.70;;
61527;SDS011;47395;42.032;-8.634;2023-01-15T08:55:39;1015.80;;;930.08;;
61527;SDS011;47395;42.032;-8.634;2023-01-15T08:57:40;1054.15;;;962.70;;
61527;SDS011;47395;42.032;-8.634;2023-01-15T08:59:41;1059.03;;;966.58;;
61527;SDS011;47395;42.032;-8.634;2023-01-15T09:01:43;1054.38;;;963.40;;
61527;SDS011;47395;42.032;-8.634;2023-01-15T09:03:44;1020.55;;;933.65;;
61527;SDS011;47395;42.032;-8.634;2023-01-15T09:05:45;1044.00;;;955.15;;
61527;SDS011;47395;42.032;-8.634;2023-01-15T09:07:46;1083.60;;;988.78;;
61527;SDS011;47395;42.032;-8.634;2023-01-15T09:09:47;1049.65;;;958.13;;
61527;SDS011;47395;42.032;-8.634;2023-01-15T09:11:48;1059.18;;;967.88;;
61527;SDS011;47395;42.032;-8.634;2023-01-15T09:13:49;1038.57;;;948.10;;
61527;SDS011;47395;42.032;-8.634;2023-01-15T09:15:51;1086.80;;;990.58;;
61527;SDS011;47395;42.032;-8.634;2023-01-15T09:17:52;1092.90;;;991.55;;
61527;SDS011;47395;42.032;-8.634;2023-01-15T09:19:54;1048.50;;;957.45;;
61527;SDS011;47395;42.032;-8.634;2023-01-15T09:21:55;1049.45;;;954.53;;
61527;SDS011;47395;42.032;-8.634;2023-01-15T09:23:56;1095.43;;;995.75;;
61527;SDS011;47395;42.032;-8.634;2023-01-15T09:25:58;1100.55;;;997.05;;
61527;SDS011;47395;42.032;-8.634;2023-01-15T09:28:05;1083.88;;;985.22;;
61527;SDS011;47395;42.032;-8.634;2023-01-15T09:30:06;1143.07;;;999.90;;
61527;SDS011;47395;42.032;-8.634;2023-01-15T09:32:10;1161.07;;;999.90;;
61527;SDS011;47395;42.032;-8.634;2023-01-15T09:34:10;1133.70;;;999.90;;
61527;SDS011;47395;42.032;-8.634;2023-01-15T09:36:18;1160.55;;;999.90;;
61527;SDS011;47395;42.032;-8.634;2023-01-15T09:38:27;1162.57;;;999.90;;
61527;SDS011;47395;42.032;-8.634;2023-01-15T09:46:07;1165.85;;;999.90;;
61527;SDS011;47395;42.032;-8.634;2023-01-15T09:48:18;1221.07;;;999.90;;
61527;SDS011;47395;42.032;-8.634;2023-01-15T09:51:30;1219.18;;;999.90;;
61527;SDS011;47395;42.032;-8.634;2023-01-15T09:53:44;1206.13;;;999.90;;
61527;SDS011;47395;42.032;-8.634;2023-01-15T09:55:53;1500.10;;;999.90;;
61527;SDS011;47395;42.032;-8.634;2023-01-15T09:57:55;1227.43;;;999.90;;
61527;SDS011;47395;42.032;-8.634;2023-01-15T09:59:59;1489.72;;;999.90;;
61527;SDS011;47395;42.032;-8.634;2023-01-15T10:02:24;1550.78;;;999.90;;
61527;SDS011;47395;42.032;-8.634;2023-01-15T10:04:34;1213.78;;;999.90;;
61527;SDS011;47395;42.032;-8.634;2023-01-15T10:06:57;1252.78;;;999.90;;
61527;SDS011;47395;42.032;-8.634;2023-01-15T10:09:16;1207.75;;;999.90;;
61527;SDS011;47395;42.032;-8.634;2023-01-15T10:11:24;1417.95;;;999.90;;
61527;SDS011;47395;42.032;-8.634;2023-01-15T10:13:55;1283.45;;;999.90;;
61527;SDS011;47395;42.032;-8.634;2023-01-15T10:16:02;1227.60;;;999.90;;
61527;SDS011;47395;42.032;-8.634;2023-01-15T10:18:04;1306.60;;;999.90;;
61527;SDS011;47395;42.032;-8.634;2023-01-15T10:23:08;1205.65;;;999.90;;
61527;SDS011;47395;42.032;-8.634;2023-01-15T10:27:30;1219.50;;;999.90;;
61527;SDS011;47395;42.032;-8.634;2023-01-15T10:29:36;1310.88;;;999.90;;
61527;SDS011;47395;42.032;-8.634;2023-01-15T10:31:48;1350.38;;;999.90;;
61527;SDS011;47395;42.032;-8.634;2023-01-15T10:34:13;1233.00;;;999.90;;
61527;SDS011;47395;42.032;-8.634;2023-01-15T10:37:11;1713.57;;;999.90;;
61527;SDS011;47395;42.032;-8.634;2023-01-15T10:42:51;1525.50;;;999.90;;
61527;SDS011;47395;42.032;-8.634;2023-01-15T10:45:17;1287.78;;;999.90;;
61527;SDS011;47395;42.032;-8.634;2023-01-15T10:47:25;1347.57;;;999.90;;
61527;SDS011;47395;42.032;-8.634;2023-01-15T10:49:32;1316.28;;;999.90;;
61527;SDS011;47395;42.032;-8.634;2023-01-15T10:51:56;1253.50;;;999.90;;
61527;SDS011;47395;42.032;-8.634;2023-01-15T10:54:28;1744.45;;;999.90;;
61527;SDS011;47395;42.032;-8.634;2023-01-15T10:56:45;1294.25;;;999.90;;
61527;SDS011;47395;42.032;-8.634;2023-01-15T10:58:54;1538.93;;;999.90;;
61527;SDS011;47395;42.032;-8.634;2023-01-15T11:01:05;1563.00;;;999.90;;
61527;SDS011;47395;42.032;-8.634;2023-01-15T11:03:11;1719.45;;;999.90;;
61527;SDS011;47395;42.032;-8.634;2023-01-15T11:05:19;1254.47;;;999.90;;
61527;SDS011;47395;42.032;-8.634;2023-01-15T11:07:26;1525.10;;;999.90;;
61527;SDS011;47395;42.032;-8.634;2023-01-15T11:09:36;1451.88;;;999.90;;
61527;SDS011;47395;42.032;-8.634;2023-01-15T11:11:44;1372.93;;;999.90;;
61527;SDS011;47395;42.032;-8.634;2023-01-15T11:14:19;1333.60;;;999.90;;
61527;SDS011;47395;42.032;-8.634;2023-01-15T11:16:39;1324.10;;;999.90;;
61527;SDS011;47395;42.032;-8.634;2023-01-15T11:19:01;1317.97;;;999.90;;
61527;SDS011;47395;42.032;-8.634;2023-01-15T11:21:22;1349.03;;;999.90;;
61527;SDS011;47395;42.032;-8.634;2023-01-15T11:23:24;1532.97;;;999.90;;
61527;SDS011;47395;42.032;-8.634;2023-01-15T11:25:28;1551.75;;;999.90;;
61527;SDS011;47395;42.032;-8.634;2023-01-15T11:27:31;1271.63;;;999.90;;
61527;SDS011;47395;42.032;-8.634;2023-01-15T11:29:34;1580.95;;;999.90;;
61527;SDS011;47395;42.032;-8.634;2023-01-15T11:31:37;1437.53;;;999.90;;
61527;SDS011;47395;42.032;-8.634;2023-01-15T11:33:39;1377.50;;;999.90;;
61527;SDS011;47395;42.032;-8.634;2023-01-15T11:35:48;1504.13;;;999.90;;
61527;SDS011;47395;42.032;-8.634;2023-01-15T11:40:23;1546.07;;;999.90;;
61527;SDS011;47395;42.032;-8.634;2023-01-15T11:42:24;1432.43;;;999.90;;
61527;SDS011;47395;42.032;-8.634;2023-01-15T11:44:54;1297.95;;;999.90;;
61527;SDS011;47395;42.032;-8.634;2023-01-15T11:47:17;1676.65;;;999.90;;
61527;SDS011;47395;42.032;-8.634;2023-01-15T11:49:36;1764.60;;;999.90;;
61527;SDS011;47395;42.032;-8.634;2023-01-15T11:51:56;1952.53;;;999.90;;
61527;SDS011;47395;42.032;-8.634;2023-01-15T11:54:03;1321.32;;;999.90;;
61527;SDS011;47395;42.032;-8.634;2023-01-15T11:56:08;1314.03;;;999.90;;
61527;SDS011;47395;42.032;-8.634;2023-01-15T11:58:13;1246.43;;;999.90;;
61527;SDS011;47395;42.032;-8.634;2023-01-15T12:00:23;1215.65;;;999.90;;
61527;SDS011;47395;42.032;-8.634;2023-01-15T12:02:31;1239.68;;;999.90;;
61527;SDS011;47395;42.032;-8.634;2023-01-15T12:04:40;1246.90;;;999.90;;
61527;SDS011;47395;42.032;-8.634;2023-01-15T12:06:55;1213.22;;;999.90;;
61527;SDS011;47395;42.032;-8.634;2023-01-15T12:11:33;1341.90;;;999.90;;
61527;SDS011;47395;42.032;-8.634;2023-01-15T12:19:24;1281.65;;;999.90;;
61527;SDS011;47395;42.032;-8.634;2023-01-15T12:24:36;1246.68;;;999.90;;